PWSweather.com
Personal Weather Stations
Station Observations
AT335
PozzuoliIT 80078

PozzuoliIT 80078

Lat: 40.8299847, Lon: 14.1268428

Elevation: 70

Station Type: Davis Vantage Pro2

http://www.ik8sda.it/wx.htm

Latest ConditionsUpdated 2:40:01 AM GMT+01:01 Thursday, Jan 17, 2019
Currently Today's Max Today's Min Today's Average
Temperature 50.3°F10.2°C 50.7°F10.4°C 49.7°F9.8°C 50.3°F10.2°C
Dew Point 41.6°F5.3°C 41.6°F5.3°C 39.6°F4.2°C 40.4°F4.7°C
Winds 1.2 mph W1.9 kmh W 3.5 mph -5.6 kmh - - 2.1 mph 3.4 kmh
Wind Gusts 3.5 mph5.6 kmh 3.5 mph5.6 kmh - -
Humidity 72% 72% 67% 69%
Pressure 30.19 in1022.4 mb 30.21 in1023.0 mb 30.16 in1021.3 mb -
Hour Temp Dew Point Humidity Winds Wind Gusts Pressure Precip Precip Rate Daily Precip Total
02:40 AM 50.3°F10.2°C 41.6°F5.3°C 72% 1.2 mph W1.9 kmh W 3.5 mph5.6 kmh 30.19 in1022.4 mb - 0.00 in0.0 mm 0.00 in0.0 mm
02:39 AM 50.3°F10.2°C 41.6°F5.3°C 72% 2.0 mph W3.2 kmh W 3.0 mph4.8 kmh 30.16 in1021.3 mb 0.00 in0.0 mm 0.00 in0.0 mm 0.00 in0.0 mm
02:30 AM 49.7°F9.8°C 40.7°F4.8°C 71% 2.3 mph W3.7 kmh W 3.5 mph5.6 kmh 30.19 in1022.4 mb - 0.00 in0.0 mm 0.00 in0.0 mm
02:25 AM 49.7°F9.8°C 40.3°F4.6°C 70% 2.0 mph W3.2 kmh W 3.0 mph4.8 kmh 30.16 in1021.3 mb 0.00 in0.0 mm 0.00 in0.0 mm 0.00 in0.0 mm
02:24 AM 49.8°F9.9°C 40.4°F4.7°C 70% 2.0 mph W3.2 kmh W 3.0 mph4.8 kmh 30.16 in1021.3 mb 0.00 in0.0 mm 0.00 in0.0 mm 0.00 in0.0 mm
02:20 AM 50.4°F10.2°C 41.0°F5.0°C 70% 2.3 mph W3.7 kmh W 3.5 mph5.6 kmh 30.19 in1022.4 mb - 0.00 in0.0 mm 0.00 in0.0 mm
02:10 AM 50.2°F10.1°C 40.4°F4.7°C 69% 2.3 mph W3.7 kmh W 3.5 mph5.6 kmh 30.19 in1022.4 mb - 0.00 in0.0 mm 0.00 in0.0 mm
02:08 AM 50.2°F10.1°C 40.4°F4.7°C 69% 2.0 mph W3.2 kmh W 3.0 mph4.8 kmh 30.16 in1021.3 mb 0.00 in0.0 mm 0.00 in0.0 mm 0.00 in0.0 mm
02:00 AM 50.6°F10.3°C 40.8°F4.9°C 69% 2.3 mph W3.7 kmh W 3.5 mph5.6 kmh 30.19 in1022.4 mb - 0.00 in0.0 mm 0.00 in0.0 mm
01:55 AM 50.2°F10.1°C 40.4°F4.7°C 69% 2.0 mph W3.2 kmh W 3.0 mph4.8 kmh 30.16 in1021.3 mb 0.00 in0.0 mm 0.00 in0.0 mm 0.00 in0.0 mm
01:53 AM 50.1°F10.1°C 40.3°F4.6°C 69% 2.0 mph W3.2 kmh W 2.0 mph3.2 kmh 30.16 in1021.3 mb 0.00 in0.0 mm 0.00 in0.0 mm 0.00 in0.0 mm
01:50 AM 50.3°F10.2°C 40.5°F4.7°C 69% 2.3 mph W3.7 kmh W 3.5 mph5.6 kmh 30.19 in1022.4 mb - 0.00 in0.0 mm 0.00 in0.0 mm
01:40 AM 50.2°F10.1°C 40.1°F4.5°C 68% 2.3 mph W3.7 kmh W 3.5 mph5.6 kmh 30.19 in1022.4 mb - 0.00 in0.0 mm 0.00 in0.0 mm
01:38 AM 50.2°F10.1°C 40.1°F4.5°C 68% 2.0 mph W3.2 kmh W 3.0 mph4.8 kmh 30.16 in1021.3 mb 0.00 in0.0 mm 0.00 in0.0 mm 0.00 in0.0 mm
01:30 AM 50.6°F10.3°C 40.4°F4.7°C 68% 2.3 mph W3.7 kmh W 3.5 mph5.6 kmh 30.19 in1022.4 mb - 0.00 in0.0 mm 0.00 in0.0 mm
01:25 AM 50.7°F10.4°C 40.5°F4.7°C 68% 2.0 mph W3.2 kmh W 2.0 mph3.2 kmh 30.16 in1021.3 mb 0.00 in0.0 mm 0.00 in0.0 mm 0.00 in0.0 mm
01:23 AM 50.6°F10.3°C 40.4°F4.7°C 68% 2.0 mph W3.2 kmh W 2.0 mph3.2 kmh 30.16 in1021.3 mb 0.00 in0.0 mm 0.00 in0.0 mm 0.00 in0.0 mm
01:20 AM 50.3°F10.2°C 40.1°F4.5°C 68% 1.2 mph W1.9 kmh W 3.5 mph5.6 kmh 30.19 in1022.4 mb - 0.00 in0.0 mm 0.00 in0.0 mm
01:10 AM 50.3°F10.2°C 40.1°F4.5°C 68% 2.3 mph W3.7 kmh W 3.5 mph5.6 kmh 30.20 in1022.7 mb - 0.00 in0.0 mm 0.00 in0.0 mm
01:08 AM 50.2°F10.1°C 39.7°F4.3°C 67% 2.0 mph W3.2 kmh W 3.0 mph4.8 kmh 30.17 in1021.7 mb 0.00 in0.0 mm 0.00 in0.0 mm 0.00 in0.0 mm
01:00 AM 50.2°F10.1°C 39.6°F4.2°C 67% 3.5 mph W5.6 kmh W 3.5 mph5.6 kmh 30.20 in1022.7 mb - 0.00 in0.0 mm 0.00 in0.0 mm
12:55 AM 50.5°F10.3°C 40.0°F4.4°C 67% 3.0 mph W4.8 kmh W 3.0 mph4.8 kmh 30.17 in1021.7 mb 0.00 in0.0 mm 0.00 in0.0 mm 0.00 in0.0 mm
12:53 AM 50.5°F10.3°C 40.0°F4.4°C 67% 2.0 mph W3.2 kmh W 2.0 mph3.2 kmh 30.17 in1021.7 mb 0.00 in0.0 mm 0.00 in0.0 mm 0.00 in0.0 mm
12:50 AM 50.6°F10.3°C 40.0°F4.4°C 67% 2.3 mph W3.7 kmh W 3.5 mph5.6 kmh 30.20 in1022.7 mb - 0.00 in0.0 mm 0.00 in0.0 mm
12:40 AM 50.4°F10.2°C 40.2°F4.6°C 68% 1.2 mph W1.9 kmh W 3.5 mph5.6 kmh 30.20 in1022.7 mb - 0.00 in0.0 mm 0.00 in0.0 mm
12:39 AM 50.4°F10.2°C 40.3°F4.6°C 68% 2.0 mph W3.2 kmh W 3.0 mph4.8 kmh 30.17 in1021.7 mb 0.00 in0.0 mm 0.00 in0.0 mm 0.00 in0.0 mm
12:30 AM 50.5°F10.3°C 40.3°F4.6°C 68% 1.2 mph W1.9 kmh W 3.5 mph5.6 kmh 30.20 in1022.7 mb - 0.00 in0.0 mm 0.00 in0.0 mm
12:25 AM 50.5°F10.3°C 40.4°F4.7°C 68% 2.0 mph W3.2 kmh W 2.0 mph3.2 kmh 30.18 in1022.0 mb 0.00 in0.0 mm 0.00 in0.0 mm 0.00 in0.0 mm
12:23 AM 50.6°F10.3°C 40.4°F4.7°C 68% 2.0 mph W3.2 kmh W 2.0 mph3.2 kmh 30.18 in1022.0 mb 0.00 in0.0 mm 0.00 in0.0 mm 0.00 in0.0 mm
12:20 AM 50.5°F10.3°C 40.7°F4.8°C 69% 2.3 mph W3.7 kmh W 3.5 mph5.6 kmh 30.21 in1023.0 mb - 0.00 in0.0 mm 0.00 in0.0 mm
12:10 AM 50.2°F10.1°C 40.4°F4.7°C 69% 3.5 mph W5.6 kmh W 3.5 mph5.6 kmh 30.21 in1023.0 mb - 0.00 in0.0 mm 0.00 in0.0 mm
12:09 AM 50.2°F10.1°C 40.4°F4.7°C 69% 2.0 mph W3.2 kmh W 3.0 mph4.8 kmh 30.18 in1022.0 mb 0.00 in0.0 mm 0.00 in0.0 mm 0.00 in0.0 mm
12:00 AM 50.7°F10.4°C 40.9°F4.9°C 69% 1.2 mph W1.9 kmh W 2.3 mph3.7 kmh 30.21 in1023.0 mb - 0.00 in0.0 mm 0.00 in0.0 mm